sensor_id;sensor_type;location;lat;lon;timestamp;temperature;humidity
20319;DHT22;10317;47.254;11.314;2023-11-21T00:02:20;7.20;99.90
20319;DHT22;10317;47.254;11.314;2023-11-21T00:04:47;7.20;99.90
20319;DHT22;10317;47.254;11.314;2023-11-21T00:07:13;7.30;99.90
20319;DHT22;10317;47.254;11.314;2023-11-21T00:09:38;7.20;99.90
20319;DHT22;10317;47.254;11.314;2023-11-21T00:12:04;7.20;99.90
20319;DHT22;10317;47.254;11.314;2023-11-21T00:14:30;7.20;99.90
20319;DHT22;10317;47.254;11.314;2023-11-21T00:16:55;7.20;99.90
20319;DHT22;10317;47.254;11.314;2023-11-21T00:19:21;7.20;99.90
20319;DHT22;10317;47.254;11.314;2023-11-21T00:21:47;7.20;99.90
20319;DHT22;10317;47.254;11.314;2023-11-21T00:24:12;7.20;99.90
20319;DHT22;10317;47.254;11.314;2023-11-21T00:26:41;7.20;99.90
20319;DHT22;10317;47.254;11.314;2023-11-21T00:29:06;7.20;99.90
20319;DHT22;10317;47.254;11.314;2023-11-21T00:31:36;7.20;99.90
20319;DHT22;10317;47.254;11.314;2023-11-21T00:34:05;7.20;99.90
20319;DHT22;10317;47.254;11.314;2023-11-21T00:36:31;7.20;99.90
20319;DHT22;10317;47.254;11.314;2023-11-21T00:38:58;7.20;99.90
20319;DHT22;10317;47.254;11.314;2023-11-21T00:41:24;7.20;99.90
20319;DHT22;10317;47.254;11.314;2023-11-21T00:43:53;7.20;99.90
20319;DHT22;10317;47.254;11.314;2023-11-21T00:46:19;7.20;99.90
20319;DHT22;10317;47.254;11.314;2023-11-21T00:48:44;7.20;99.90
20319;DHT22;10317;47.254;11.314;2023-11-21T00:51:10;7.20;99.90
20319;DHT22;10317;47.254;11.314;2023-11-21T00:53:36;7.20;99.90
20319;DHT22;10317;47.254;11.314;2023-11-21T00:56:01;7.20;99.90
20319;DHT22;10317;47.254;11.314;2023-11-21T00:58:28;7.20;99.90
20319;DHT22;10317;47.254;11.314;2023-11-21T01:00:53;7.20;99.90
20319;DHT22;10317;47.254;11.314;2023-11-21T01:03:19;7.20;99.90
20319;DHT22;10317;47.254;11.314;2023-11-21T01:05:45;7.10;99.90
20319;DHT22;10317;47.254;11.314;2023-11-21T01:08:11;7.10;99.90
20319;DHT22;10317;47.254;11.314;2023-11-21T01:10:37;7.10;99.90
20319;DHT22;10317;47.254;11.314;2023-11-21T01:13:03;7.10;99.90
20319;DHT22;10317;47.254;11.314;2023-11-21T01:15:33;7.10;99.90
20319;DHT22;10317;47.254;11.314;2023-11-21T01:17:59;7.10;99.90
20319;DHT22;10317;47.254;11.314;2023-11-21T01:20:24;7.10;99.90
20319;DHT22;10317;47.254;11.314;2023-11-21T01:22:50;7.10;99.90
20319;DHT22;10317;47.254;11.314;2023-11-21T01:25:16;7.10;99.90
20319;DHT22;10317;47.254;11.314;2023-11-21T01:27:42;7.10;99.90
20319;DHT22;10317;47.254;11.314;2023-11-21T01:30:08;7.10;99.90
20319;DHT22;10317;47.254;11.314;2023-11-21T01:32:36;7.10;99.90
20319;DHT22;10317;47.254;11.314;2023-11-21T01:35:03;7.10;99.90
20319;DHT22;10317;47.254;11.314;2023-11-21T01:37:30;7.10;99.90
20319;DHT22;10317;47.254;11.314;2023-11-21T01:39:56;7.10;99.90
20319;DHT22;10317;47.254;11.314;2023-11-21T01:42:22;7.10;99.90
20319;DHT22;10317;47.254;11.314;2023-11-21T01:44:47;7.00;99.90
20319;DHT22;10317;47.254;11.314;2023-11-21T01:47:14;7.00;99.90
20319;DHT22;10317;47.254;11.314;2023-11-21T01:49:44;7.00;99.90
20319;DHT22;10317;47.254;11.314;2023-11-21T01:52:10;7.00;99.90
20319;DHT22;10317;47.254;11.314;2023-11-21T01:54:37;7.00;99.90
20319;DHT22;10317;47.254;11.314;2023-11-21T01:57:04;7.00;99.90
20319;DHT22;10317;47.254;11.314;2023-11-21T01:59:37;7.00;99.90
20319;DHT22;10317;47.254;11.314;2023-11-21T02:02:04;7.00;99.90
20319;DHT22;10317;47.254;11.314;2023-11-21T02:04:32;7.00;99.90
20319;DHT22;10317;47.254;11.314;2023-11-21T02:06:58;7.00;99.90
20319;DHT22;10317;47.254;11.314;2023-11-21T02:09:28;7.00;99.90
20319;DHT22;10317;47.254;11.314;2023-11-21T02:11:55;7.00;99.90
20319;DHT22;10317;47.254;11.314;2023-11-21T02:14:21;7.00;99.90
20319;DHT22;10317;47.254;11.314;2023-11-21T02:16:51;7.00;99.90
20319;DHT22;10317;47.254;11.314;2023-11-21T02:19:18;7.00;99.90
20319;DHT22;10317;47.254;11.314;2023-11-21T02:22:02;7.00;99.90
20319;DHT22;10317;47.254;11.314;2023-11-21T02:24:32;7.00;99.90
20319;DHT22;10317;47.254;11.314;2023-11-21T02:26:57;7.00;99.90
20319;DHT22;10317;47.254;11.314;2023-11-21T02:29:23;7.00;99.90
20319;DHT22;10317;47.254;11.314;2023-11-21T02:31:54;7.00;99.90
20319;DHT22;10317;47.254;11.314;2023-11-21T02:34:21;6.90;99.90
20319;DHT22;10317;47.254;11.314;2023-11-21T02:36:47;6.90;99.90
20319;DHT22;10317;47.254;11.314;2023-11-21T02:39:15;6.90;99.90
20319;DHT22;10317;47.254;11.314;2023-11-21T02:41:42;6.90;99.90
20319;DHT22;10317;47.254;11.314;2023-11-21T02:44:08;6.90;99.90
20319;DHT22;10317;47.254;11.314;2023-11-21T02:46:35;6.90;99.90
20319;DHT22;10317;47.254;11.314;2023-11-21T02:49:02;6.90;99.90
20319;DHT22;10317;47.254;11.314;2023-11-21T02:51:28;6.90;99.90
20319;DHT22;10317;47.254;11.314;2023-11-21T02:53:54;6.90;99.90
20319;DHT22;10317;47.254;11.314;2023-11-21T02:56:20;6.90;99.90
20319;DHT22;10317;47.254;11.314;2023-11-21T02:58:45;6.80;99.90
20319;DHT22;10317;47.254;11.314;2023-11-21T03:01:11;6.80;99.90
20319;DHT22;10317;47.254;11.314;2023-11-21T03:03:39;6.80;99.90
20319;DHT22;10317;47.254;11.314;2023-11-21T03:06:06;6.80;99.90
20319;DHT22;10317;47.254;11.314;2023-11-21T03:08:32;6.80;99.90
20319;DHT22;10317;47.254;11.314;2023-11-21T03:10:58;6.70;99.90
20319;DHT22;10317;47.254;11.314;2023-11-21T03:13:23;6.70;99.90
20319;DHT22;10317;47.254;11.314;2023-11-21T03:15:49;6.60;99.90
20319;DHT22;10317;47.254;11.314;2023-11-21T03:18:15;6.60;99.90
20319;DHT22;10317;47.254;11.314;2023-11-21T03:20:41;6.60;99.90
20319;DHT22;10317;47.254;11.314;2023-11-21T03:23:07;6.50;99.90
20319;DHT22;10317;47.254;11.314;2023-11-21T03:25:32;6.50;99.90
20319;DHT22;10317;47.254;11.314;2023-11-21T03:27:58;6.40;99.90
20319;DHT22;10317;47.254;11.314;2023-11-21T03:30:24;6.40;99.90
20319;DHT22;10317;47.254;11.314;2023-11-21T03:32:49;6.30;99.90
20319;DHT22;10317;47.254;11.314;2023-11-21T03:35:15;6.30;99.90
20319;DHT22;10317;47.254;11.314;2023-11-21T03:37:41;6.30;99.90
20319;DHT22;10317;47.254;11.314;2023-11-21T03:40:08;6.20;99.90
20319;DHT22;10317;47.254;11.314;2023-11-21T03:42:34;6.20;99.90
20319;DHT22;10317;47.254;11.314;2023-11-21T03:45:00;6.10;99.90
20319;DHT22;10317;47.254;11.314;2023-11-21T03:47:27;6.10;99.90
20319;DHT22;10317;47.254;11.314;2023-11-21T03:49:53;6.00;99.90
20319;DHT22;10317;47.254;11.314;2023-11-21T03:52:18;6.00;99.90
20319;DHT22;10317;47.254;11.314;2023-11-21T03:54:44;6.00;99.90
20319;DHT22;10317;47.254;11.314;2023-11-21T03:57:10;6.00;99.90
20319;DHT22;10317;47.254;11.314;2023-11-21T03:59:36;5.90;99.90
20319;DHT22;10317;47.254;11.314;2023-11-21T04:02:05;5.90;99.90
20319;DHT22;10317;47.254;11.314;2023-11-21T04:04:30;6.00;99.90
20319;DHT22;10317;47.254;11.314;2023-11-21T04:06:56;6.00;99.90
20319;DHT22;10317;47.254;11.314;2023-11-21T04:09:21;6.00;99.90
20319;DHT22;10317;47.254;11.314;2023-11-21T04:11:53;6.00;99.90
20319;DHT22;10317;47.254;11.314;2023-11-21T04:14:19;6.00;99.90
20319;DHT22;10317;47.254;11.314;2023-11-21T04:16:45;6.00;99.90
20319;DHT22;10317;47.254;11.314;2023-11-21T04:19:10;6.00;99.90
20319;DHT22;10317;47.254;11.314;2023-11-21T04:21:39;6.10;99.90
20319;DHT22;10317;47.254;11.314;2023-11-21T04:24:05;6.10;99.90
20319;DHT22;10317;47.254;11.314;2023-11-21T04:26:31;6.10;99.90
20319;DHT22;10317;47.254;11.314;2023-11-21T04:28:57;6.10;99.90
20319;DHT22;10317;47.254;11.314;2023-11-21T04:31:22;6.10;99.90
20319;DHT22;10317;47.254;11.314;2023-11-21T04:33:48;6.10;99.90
20319;DHT22;10317;47.254;11.314;2023-11-21T04:36:14;6.10;99.90
20319;DHT22;10317;47.254;11.314;2023-11-21T04:38:40;6.10;99.90
20319;DHT22;10317;47.254;11.314;2023-11-21T04:41:06;6.00;99.90
20319;DHT22;10317;47.254;11.314;2023-11-21T04:43:32;6.00;99.90
20319;DHT22;10317;47.254;11.314;2023-11-21T04:45:57;5.90;99.90
20319;DHT22;10317;47.254;11.314;2023-11-21T04:48:23;5.80;99.90
20319;DHT22;10317;47.254;11.314;2023-11-21T04:50:49;5.80;99.90
20319;DHT22;10317;47.254;11.314;2023-11-21T04:53:14;5.70;99.90
20319;DHT22;10317;47.254;11.314;2023-11-21T04:55:40;5.70;99.90
20319;DHT22;10317;47.254;11.314;2023-11-21T04:58:07;5.70;99.90
20319;DHT22;10317;47.254;11.314;2023-11-21T05:00:34;5.60;99.90
20319;DHT22;10317;47.254;11.314;2023-11-21T05:02:59;5.60;99.90
20319;DHT22;10317;47.254;11.314;2023-11-21T05:05:27;5.50;99.90
20319;DHT22;10317;47.254;11.314;2023-11-21T05:07:52;5.60;99.90
20319;DHT22;10317;47.254;11.314;2023-11-21T05:10:19;5.60;99.90
20319;DHT22;10317;47.254;11.314;2023-11-21T05:12:45;5.60;99.90
20319;DHT22;10317;47.254;11.314;2023-11-21T05:15:14;5.50;99.90
20319;DHT22;10317;47.254;11.314;2023-11-21T05:17:41;5.50;99.90
20319;DHT22;10317;47.254;11.314;2023-11-21T05:20:13;5.50;99.90
20319;DHT22;10317;47.254;11.314;2023-11-21T05:22:40;5.50;99.90
20319;DHT22;10317;47.254;11.314;2023-11-21T05:25:07;5.50;99.90
20319;DHT22;10317;47.254;11.314;2023-11-21T05:27:34;5.50;99.90
20319;DHT22;10317;47.254;11.314;2023-11-21T05:30:01;5.50;99.90
20319;DHT22;10317;47.254;11.314;2023-11-21T05:32:28;5.60;99.90
20319;DHT22;10317;47.254;11.314;2023-11-21T05:34:53;5.50;99.90
20319;DHT22;10317;47.254;11.314;2023-11-21T05:37:19;5.50;99.90
20319;DHT22;10317;47.254;11.314;2023-11-21T05:39:45;5.40;99.90
20319;DHT22;10317;47.254;11.314;2023-11-21T05:42:10;5.40;99.90
20319;DHT22;10317;47.254;11.314;2023-11-21T05:44:37;5.40;99.90
20319;DHT22;10317;47.254;11.314;2023-11-21T05:47:03;5.40;99.90
20319;DHT22;10317;47.254;11.314;2023-11-21T05:49:29;5.30;99.90
20319;DHT22;10317;47.254;11.314;2023-11-21T05:51:56;5.30;99.90
20319;DHT22;10317;47.254;11.314;2023-11-21T05:54:22;5.30;99.90
20319;DHT22;10317;47.254;11.314;2023-11-21T05:56:49;5.20;99.90
20319;DHT22;10317;47.254;11.314;2023-11-21T05:59:15;5.20;99.90
20319;DHT22;10317;47.254;11.314;2023-11-21T06:01:40;5.10;99.90
20319;DHT22;10317;47.254;11.314;2023-11-21T06:04:06;5.10;99.90
20319;DHT22;10317;47.254;11.314;2023-11-21T06:06:35;5.10;99.90
20319;DHT22;10317;47.254;11.314;2023-11-21T06:09:00;5.10;99.90
20319;DHT22;10317;47.254;11.314;2023-11-21T06:11:26;5.10;99.90
20319;DHT22;10317;47.254;11.314;2023-11-21T06:13:52;5.10;99.90
20319;DHT22;10317;47.254;11.314;2023-11-21T06:16:19;5.20;99.90
20319;DHT22;10317;47.254;11.314;2023-11-21T06:18:48;5.20;99.90
20319;DHT22;10317;47.254;11.314;2023-11-21T06:21:13;5.20;99.90
20319;DHT22;10317;47.254;11.314;2023-11-21T06:23:40;5.30;99.90
20319;DHT22;10317;47.254;11.314;2023-11-21T06:26:06;5.30;99.90
20319;DHT22;10317;47.254;11.314;2023-11-21T06:28:32;5.30;99.90
20319;DHT22;10317;47.254;11.314;2023-11-21T06:30:57;5.40;99.90
20319;DHT22;10317;47.254;11.314;2023-11-21T06:33:24;5.40;99.90
20319;DHT22;10317;47.254;11.314;2023-11-21T06:35:52;5.40;99.90
20319;DHT22;10317;47.254;11.314;2023-11-21T06:38:18;5.40;99.90
20319;DHT22;10317;47.254;11.314;2023-11-21T06:40:45;5.40;99.90
20319;DHT22;10317;47.254;11.314;2023-11-21T06:43:11;5.50;99.90
20319;DHT22;10317;47.254;11.314;2023-11-21T06:45:36;5.60;99.90
20319;DHT22;10317;47.254;11.314;2023-11-21T06:48:02;5.60;99.90
20319;DHT22;10317;47.254;11.314;2023-11-21T06:50:28;5.60;99.90
20319;DHT22;10317;47.254;11.314;2023-11-21T06:52:53;5.60;99.90
20319;DHT22;10317;47.254;11.314;2023-11-21T06:55:19;5.60;99.90
20319;DHT22;10317;47.254;11.314;2023-11-21T06:57:45;5.70;99.90
20319;DHT22;10317;47.254;11.314;2023-11-21T07:00:13;5.80;99.90
20319;DHT22;10317;47.254;11.314;2023-11-21T07:02:38;5.80;99.90
20319;DHT22;10317;47.254;11.314;2023-11-21T07:05:05;5.90;99.90
20319;DHT22;10317;47.254;11.314;2023-11-21T07:07:31;6.00;99.90
20319;DHT22;10317;47.254;11.314;2023-11-21T07:09:56;6.10;99.90
20319;DHT22;10317;47.254;11.314;2023-11-21T07:12:22;6.20;99.90
20319;DHT22;10317;47.254;11.314;2023-11-21T07:14:51;6.30;99.90
20319;DHT22;10317;47.254;11.314;2023-11-21T07:17:16;6.40;99.90
20319;DHT22;10317;47.254;11.314;2023-11-21T07:19:43;6.50;99.90
20319;DHT22;10317;47.254;11.314;2023-11-21T07:22:08;6.60;99.90
20319;DHT22;10317;47.254;11.314;2023-11-21T07:24:34;6.70;99.90
20319;DHT22;10317;47.254;11.314;2023-11-21T07:27:00;6.80;99.90
20319;DHT22;10317;47.254;11.314;2023-11-21T07:29:26;6.90;99.90
20319;DHT22;10317;47.254;11.314;2023-11-21T07:31:52;7.00;99.90
20319;DHT22;10317;47.254;11.314;2023-11-21T07:34:20;7.10;99.90
20319;DHT22;10317;47.254;11.314;2023-11-21T07:36:46;7.30;99.90
20319;DHT22;10317;47.254;11.314;2023-11-21T07:39:12;7.40;99.90
20319;DHT22;10317;47.254;11.314;2023-11-21T07:41:37;7.40;99.90
20319;DHT22;10317;47.254;11.314;2023-11-21T07:44:10;7.40;99.90
20319;DHT22;10317;47.254;11.314;2023-11-21T07:46:36;7.40;99.90
20319;DHT22;10317;47.254;11.314;2023-11-21T07:49:01;7.40;99.90
20319;DHT22;10317;47.254;11.314;2023-11-21T07:51:27;7.40;99.90
20319;DHT22;10317;47.254;11.314;2023-11-21T07:53:54;7.40;99.90
20319;DHT22;10317;47.254;11.314;2023-11-21T07:56:19;7.40;99.90
20319;DHT22;10317;47.254;11.314;2023-11-21T07:58:45;7.40;99.90
20319;DHT22;10317;47.254;11.314;2023-11-21T08:01:11;7.40;99.90
20319;DHT22;10317;47.254;11.314;2023-11-21T08:03:37;7.40;99.90
20319;DHT22;10317;47.254;11.314;2023-11-21T08:06:03;7.30;99.90
20319;DHT22;10317;47.254;11.314;2023-11-21T08:08:31;7.30;99.90
20319;DHT22;10317;47.254;11.314;2023-11-21T08:10:57;7.30;99.90
20319;DHT22;10317;47.254;11.314;2023-11-21T08:13:27;7.30;99.90
20319;DHT22;10317;47.254;11.314;2023-11-21T08:15:57;7.30;99.90
20319;DHT22;10317;47.254;11.314;2023-11-21T08:18:27;7.40;99.90
20319;DHT22;10317;47.254;11.314;2023-11-21T08:20:54;7.40;99.90
20319;DHT22;10317;47.254;11.314;2023-11-21T08:23:20;7.50;99.90
20319;DHT22;10317;47.254;11.314;2023-11-21T08:25:46;7.60;99.90
20319;DHT22;10317;47.254;11.314;2023-11-21T08:28:12;7.70;99.90
20319;DHT22;10317;47.254;11.314;2023-11-21T08:30:40;7.80;99.90
20319;DHT22;10317;47.254;11.314;2023-11-21T08:33:07;8.00;99.90
20319;DHT22;10317;47.254;11.314;2023-11-21T08:35:34;8.20;99.90
20319;DHT22;10317;47.254;11.314;2023-11-21T08:37:59;8.30;99.90
20319;DHT22;10317;47.254;11.314;2023-11-21T08:40:25;8.40;99.90
20319;DHT22;10317;47.254;11.314;2023-11-21T08:42:51;8.50;99.90
20319;DHT22;10317;47.254;11.314;2023-11-21T08:45:18;8.60;99.90
20319;DHT22;10317;47.254;11.314;2023-11-21T08:47:44;8.60;99.90
20319;DHT22;10317;47.254;11.314;2023-11-21T08:50:10;8.60;99.90
20319;DHT22;10317;47.254;11.314;2023-11-21T08:52:41;8.60;99.90
20319;DHT22;10317;47.254;11.314;2023-11-21T08:55:08;8.60;99.90
20319;DHT22;10317;47.254;11.314;2023-11-21T08:57:34;8.50;99.90
20319;DHT22;10317;47.254;11.314;2023-11-21T09:00:01;8.50;99.90
20319;DHT22;10317;47.254;11.314;2023-11-21T09:02:27;8.60;99.90
20319;DHT22;10317;47.254;11.314;2023-11-21T09:04:52;8.60;99.90
20319;DHT22;10317;47.254;11.314;2023-11-21T09:07:21;8.60;99.90
20319;DHT22;10317;47.254;11.314;2023-11-21T09:09:47;8.60;99.90
20319;DHT22;10317;47.254;11.314;2023-11-21T09:12:14;8.50;99.90
20319;DHT22;10317;47.254;11.314;2023-11-21T09:14:40;8.60;99.90
20319;DHT22;10317;47.254;11.314;2023-11-21T09:17:06;8.70;99.90
20319;DHT22;10317;47.254;11.314;2023-11-21T09:19:37;8.70;99.90
20319;DHT22;10317;47.254;11.314;2023-11-21T09:22:03;8.90;99.90
20319;DHT22;10317;47.254;11.314;2023-11-21T09:24:28;9.10;99.90
20319;DHT22;10317;47.254;11.314;2023-11-21T09:26:55;9.20;99.90
20319;DHT22;10317;47.254;11.314;2023-11-21T09:29:21;9.50;99.90
20319;DHT22;10317;47.254;11.314;2023-11-21T09:31:47;9.70;99.90
20319;DHT22;10317;47.254;11.314;2023-11-21T09:34:13;10.00;99.90
20319;DHT22;10317;47.254;11.314;2023-11-21T09:36:39;10.20;99.90
20319;DHT22;10317;47.254;11.314;2023-11-21T09:39:05;10.40;99.90
20319;DHT22;10317;47.254;11.314;2023-11-21T09:41:50;10.60;99.90
20319;DHT22;10317;47.254;11.314;2023-11-21T09:44:25;10.90;99.90
20319;DHT22;10317;47.254;11.314;2023-11-21T09:46:54;11.20;99.90
20319;DHT22;10317;47.254;11.314;2023-11-21T09:49:23;11.50;99.90
20319;DHT22;10317;47.254;11.314;2023-11-21T09:51:55;11.90;99.90
20319;DHT22;10317;47.254;11.314;2023-11-21T09:54:24;12.30;99.90
20319;DHT22;10317;47.254;11.314;2023-11-21T09:56:50;12.50;99.90
20319;DHT22;10317;47.254;11.314;2023-11-21T09:59:16;12.90;99.90
20319;DHT22;10317;47.254;11.314;2023-11-21T10:01:42;13.40;99.90
20319;DHT22;10317;47.254;11.314;2023-11-21T10:04:09;13.80;99.90
20319;DHT22;10317;47.254;11.314;2023-11-21T10:06:39;14.00;99.90
20319;DHT22;10317;47.254;11.314;2023-11-21T10:09:10;14.30;98.40
20319;DHT22;10317;47.254;11.314;2023-11-21T10:11:40;14.70;96.20
20319;DHT22;10317;47.254;11.314;2023-11-21T10:14:08;15.10;96.00
20319;DHT22;10317;47.254;11.314;2023-11-21T10:16:36;15.80;94.90
20319;DHT22;10317;47.254;11.314;2023-11-21T10:19:04;15.50;94.20
20319;DHT22;10317;47.254;11.314;2023-11-21T10:21:32;15.20;94.10
20319;DHT22;10317;47.254;11.314;2023-11-21T10:23:58;14.70;94.20
20319;DHT22;10317;47.254;11.314;2023-11-21T10:26:26;14.30;93.40
20319;DHT22;10317;47.254;11.314;2023-11-21T10:29:02;13.70;94.60
20319;DHT22;10317;47.254;11.314;2023-11-21T10:31:32;13.30;94.70
20319;DHT22;10317;47.254;11.314;2023-11-21T10:34:19;12.90;95.70
20319;DHT22;10317;47.254;11.314;2023-11-21T10:36:45;12.70;96.00
20319;DHT22;10317;47.254;11.314;2023-11-21T10:39:18;12.40;96.70
20319;DHT22;10317;47.254;11.314;2023-11-21T10:41:45;12.40;96.70
20319;DHT22;10317;47.254;11.314;2023-11-21T10:44:17;12.40;97.00
20319;DHT22;10317;47.254;11.314;2023-11-21T10:46:50;12.40;96.70
20319;DHT22;10317;47.254;11.314;2023-11-21T10:49:20;12.30;96.60
20319;DHT22;10317;47.254;11.314;2023-11-21T10:51:46;12.40;96.90
20319;DHT22;10317;47.254;11.314;2023-11-21T10:54:18;12.40;97.40
20319;DHT22;10317;47.254;11.314;2023-11-21T10:56:44;12.40;97.20
20319;DHT22;10317;47.254;11.314;2023-11-21T10:59:11;12.20;97.90
20319;DHT22;10317;47.254;11.314;2023-11-21T11:01:42;11.90;97.80
20319;DHT22;10317;47.254;11.314;2023-11-21T11:04:09;11.50;98.90
20319;DHT22;10317;47.254;11.314;2023-11-21T11:06:41;11.30;99.10
20319;DHT22;10317;47.254;11.314;2023-11-21T11:09:07;11.10;99.40
20319;DHT22;10317;47.254;11.314;2023-11-21T11:14:04;10.80;99.40
20319;DHT22;10317;47.254;11.314;2023-11-21T11:16:30;10.70;99.90
20319;DHT22;10317;47.254;11.314;2023-11-21T11:18:56;10.70;99.90
20319;DHT22;10317;47.254;11.314;2023-11-21T11:24:25;10.70;99.90
20319;DHT22;10317;47.254;11.314;2023-11-21T11:32:48;10.60;99.90
20319;DHT22;10317;47.254;11.314;2023-11-21T11:35:42;10.60;99.90
20319;DHT22;10317;47.254;11.314;2023-11-21T11:38:12;10.60;99.90
20319;DHT22;10317;47.254;11.314;2023-11-21T11:40:40;10.60;99.90
20319;DHT22;10317;47.254;11.314;2023-11-21T11:43:07;10.50;99.90
20319;DHT22;10317;47.254;11.314;2023-11-21T11:45:34;10.50;99.90
20319;DHT22;10317;47.254;11.314;2023-11-21T11:48:01;10.40;99.90
20319;DHT22;10317;47.254;11.314;2023-11-21T11:50:29;10.40;99.90
20319;DHT22;10317;47.254;11.314;2023-11-21T11:52:57;10.40;99.90
20319;DHT22;10317;47.254;11.314;2023-11-21T11:55:37;10.40;99.90
20319;DHT22;10317;47.254;11.314;2023-11-21T11:58:06;10.40;99.90
20319;DHT22;10317;47.254;11.314;2023-11-21T12:00:35;10.40;99.90
20319;DHT22;10317;47.254;11.314;2023-11-21T12:03:06;10.30;99.90
20319;DHT22;10317;47.254;11.314;2023-11-21T12:05:33;10.30;99.90
20319;DHT22;10317;47.254;11.314;2023-11-21T12:08:07;10.20;99.90
20319;DHT22;10317;47.254;11.314;2023-11-21T12:10:35;10.20;99.90
20319;DHT22;10317;47.254;11.314;2023-11-21T12:13:05;10.10;99.90
20319;DHT22;10317;47.254;11.314;2023-11-21T12:15:36;10.10;99.90
20319;DHT22;10317;47.254;11.314;2023-11-21T12:18:02;10.00;99.90
20319;DHT22;10317;47.254;11.314;2023-11-21T12:20:29;10.00;99.90
20319;DHT22;10317;47.254;11.314;2023-11-21T12:22:59;10.00;99.90
20319;DHT22;10317;47.254;11.314;2023-11-21T12:25:27;10.00;99.90
20319;DHT22;10317;47.254;11.314;2023-11-21T12:27:55;10.00;99.90
20319;DHT22;10317;47.254;11.314;2023-11-21T12:30:23;10.10;99.90
20319;DHT22;10317;47.254;11.314;2023-11-21T12:32:52;10.10;99.90
20319;DHT22;10317;47.254;11.314;2023-11-21T12:35:24;10.20;99.90
20319;DHT22;10317;47.254;11.314;2023-11-21T12:37:51;10.30;99.90
20319;DHT22;10317;47.254;11.314;2023-11-21T12:40:18;10.40;99.90
20319;DHT22;10317;47.254;11.314;2023-11-21T12:42:45;10.50;99.90
20319;DHT22;10317;47.254;11.314;2023-11-21T12:47:50;10.60;99.90
20319;DHT22;10317;47.254;11.314;2023-11-21T12:50:28;10.60;99.90
20319;DHT22;10317;47.254;11.314;2023-11-21T12:52:58;10.60;99.90
20319;DHT22;10317;47.254;11.314;2023-11-21T12:55:25;10.50;99.90
20319;DHT22;10317;47.254;11.314;2023-11-21T12:57:55;10.50;99.90
20319;DHT22;10317;47.254;11.314;2023-11-21T13:00:31;10.40;99.90
20319;DHT22;10317;47.254;11.314;2023-11-21T13:02:58;10.40;99.90
20319;DHT22;10317;47.254;11.314;2023-11-21T13:05:34;10.30;99.90
20319;DHT22;10317;47.254;11.314;2023-11-21T13:08:02;10.20;99.90
20319;DHT22;10317;47.254;11.314;2023-11-21T13:10:31;10.10;99.90
20319;DHT22;10317;47.254;11.314;2023-11-21T13:13:01;10.10;99.90
20319;DHT22;10317;47.254;11.314;2023-11-21T13:15:28;10.00;99.90
20319;DHT22;10317;47.254;11.314;2023-11-21T13:17:54;10.00;99.90
20319;DHT22;10317;47.254;11.314;2023-11-21T13:20:21;10.00;99.90
20319;DHT22;10317;47.254;11.314;2023-11-21T13:22:57;10.00;99.90
20319;DHT22;10317;47.254;11.314;2023-11-21T13:25:28;9.90;99.90
20319;DHT22;10317;47.254;11.314;2023-11-21T13:30:20;9.90;99.90
20319;DHT22;10317;47.254;11.314;2023-11-21T13:33:04;9.80;99.90
20319;DHT22;10317;47.254;11.314;2023-11-21T13:35:39;9.70;99.90
20319;DHT22;10317;47.254;11.314;2023-11-21T13:38:12;9.60;99.90
20319;DHT22;10317;47.254;11.314;2023-11-21T13:40:40;9.50;99.90
20319;DHT22;10317;47.254;11.314;2023-11-21T13:43:12;9.50;99.90
20319;DHT22;10317;47.254;11.314;2023-11-21T13:45:39;9.50;99.90
20319;DHT22;10317;47.254;11.314;2023-11-21T13:48:06;9.50;99.90
20319;DHT22;10317;47.254;11.314;2023-11-21T13:50:42;9.40;99.90
20319;DHT22;10317;47.254;11.314;2023-11-21T13:53:21;9.30;99.90
20319;DHT22;10317;47.254;11.314;2023-11-21T13:55:51;9.30;99.90
20319;DHT22;10317;47.254;11.314;2023-11-21T13:58:20;9.10;99.90
20319;DHT22;10317;47.254;11.314;2023-11-21T14:00:50;9.00;99.90
20319;DHT22;10317;47.254;11.314;2023-11-21T14:03:22;8.90;99.90
20319;DHT22;10317;47.254;11.314;2023-11-21T14:05:50;8.80;99.90
20319;DHT22;10317;47.254;11.314;2023-11-21T14:08:20;8.80;99.90
20319;DHT22;10317;47.254;11.314;2023-11-21T14:10:49;8.80;99.90
20319;DHT22;10317;47.254;11.314;2023-11-21T14:13:23;8.80;99.90
20319;DHT22;10317;47.254;11.314;2023-11-21T14:15:50;8.80;99.90
20319;DHT22;10317;47.254;11.314;2023-11-21T14:18:26;8.90;99.90
20319;DHT22;10317;47.254;11.314;2023-11-21T14:21:12;8.90;99.90
20319;DHT22;10317;47.254;11.314;2023-11-21T14:23:39;8.80;99.90
20319;DHT22;10317;47.254;11.314;2023-11-21T14:26:05;8.80;99.90
20319;DHT22;10317;47.254;11.314;2023-11-21T14:28:32;8.80;99.90
20319;DHT22;10317;47.254;11.314;2023-11-21T14:31:00;8.80;99.90
20319;DHT22;10317;47.254;11.314;2023-11-21T14:33:26;8.70;99.90
20319;DHT22;10317;47.254;11.314;2023-11-21T14:35:51;8.60;99.90
20319;DHT22;10317;47.254;11.314;2023-11-21T14:38:17;8.60;99.90
20319;DHT22;10317;47.254;11.314;2023-11-21T14:40:43;8.50;99.90
20319;DHT22;10317;47.254;11.314;2023-11-21T14:43:09;8.40;99.90
20319;DHT22;10317;47.254;11.314;2023-11-21T14:45:34;8.40;99.90
20319;DHT22;10317;47.254;11.314;2023-11-21T14:48:01;8.40;99.90
20319;DHT22;10317;47.254;11.314;2023-11-21T14:50:51;8.30;99.90
20319;DHT22;10317;47.254;11.314;2023-11-21T14:53:29;8.30;99.90
20319;DHT22;10317;47.254;11.314;2023-11-21T14:56:13;8.20;99.90
20319;DHT22;10317;47.254;11.314;2023-11-21T14:58:47;8.20;99.90
20319;DHT22;10317;47.254;11.314;2023-11-21T15:01:13;8.20;99.90
20319;DHT22;10317;47.254;11.314;2023-11-21T15:03:38;8.10;99.90
20319;DHT22;10317;47.254;11.314;2023-11-21T15:06:15;8.10;99.90
20319;DHT22;10317;47.254;11.314;2023-11-21T15:08:56;8.00;99.90
20319;DHT22;10317;47.254;11.314;2023-11-21T15:11:45;8.00;99.90
20319;DHT22;10317;47.254;11.314;2023-11-21T15:14:11;7.90;99.90
20319;DHT22;10317;47.254;11.314;2023-11-21T15:16:41;7.90;99.90
20319;DHT22;10317;47.254;11.314;2023-11-21T15:19:12;7.80;99.90
20319;DHT22;10317;47.254;11.314;2023-11-21T15:21:46;7.80;99.90
20319;DHT22;10317;47.254;11.314;2023-11-21T15:24:12;7.80;99.90
20319;DHT22;10317;47.254;11.314;2023-11-21T15:26:38;7.80;99.90
20319;DHT22;10317;47.254;11.314;2023-11-21T15:29:04;7.90;99.90
20319;DHT22;10317;47.254;11.314;2023-11-21T15:31:30;7.90;99.90
20319;DHT22;10317;47.254;11.314;2023-11-21T15:33:55;7.80;99.90
20319;DHT22;10317;47.254;11.314;2023-11-21T15:36:26;7.80;99.90
20319;DHT22;10317;47.254;11.314;2023-11-21T15:38:52;7.70;99.90
20319;DHT22;10317;47.254;11.314;2023-11-21T15:41:18;7.70;99.90
20319;DHT22;10317;47.254;11.314;2023-11-21T15:43:44;7.70;99.90
20319;DHT22;10317;47.254;11.314;2023-11-21T15:46:10;7.70;99.90
20319;DHT22;10317;47.254;11.314;2023-11-21T15:48:35;7.70;99.90